sensor_id;sensor_type;location;lat;lon;timestamp;P1;durP1;ratioP1;P2;durP2;ratioP2
47866;SDS011;33628;50.806;11.586;2022-08-03T00:01:47;4.18;;;1.40;;
47866;SDS011;33628;50.806;11.586;2022-08-03T00:04:16;2.50;;;1.23;;
47866;SDS011;33628;50.806;11.586;2022-08-03T00:06:42;5.05;;;1.50;;
47866;SDS011;33628;50.806;11.586;2022-08-03T00:09:08;3.67;;;1.52;;
47866;SDS011;33628;50.806;11.586;2022-08-03T00:11:35;3.97;;;1.35;;
47866;SDS011;33628;50.806;11.586;2022-08-03T00:14:02;5.05;;;1.67;;
47866;SDS011;33628;50.806;11.586;2022-08-03T00:16:28;3.22;;;1.25;;
47866;SDS011;33628;50.806;11.586;2022-08-03T00:18:54;2.50;;;1.58;;
47866;SDS011;33628;50.806;11.586;2022-08-03T00:21:22;1.20;;;1.10;;
47866;SDS011;33628;50.806;11.586;2022-08-03T00:23:48;2.55;;;1.35;;
47866;SDS011;33628;50.806;11.586;2022-08-03T00:26:14;2.00;;;1.40;;
47866;SDS011;33628;50.806;11.586;2022-08-03T00:28:40;1.88;;;1.35;;
47866;SDS011;33628;50.806;11.586;2022-08-03T00:31:07;7.13;;;1.67;;
47866;SDS011;33628;50.806;11.586;2022-08-03T00:33:33;2.60;;;1.92;;
47866;SDS011;33628;50.806;11.586;2022-08-03T00:35:59;4.78;;;1.70;;
47866;SDS011;33628;50.806;11.586;2022-08-03T00:38:27;2.58;;;1.52;;
47866;SDS011;33628;50.806;11.586;2022-08-03T00:40:53;5.07;;;1.70;;
47866;SDS011;33628;50.806;11.586;2022-08-03T00:43:23;3.17;;;1.65;;
47866;SDS011;33628;50.806;11.586;2022-08-03T00:45:49;2.60;;;1.50;;
47866;SDS011;33628;50.806;11.586;2022-08-03T00:48:16;2.92;;;1.80;;
47866;SDS011;33628;50.806;11.586;2022-08-03T00:50:42;3.13;;;1.70;;
47866;SDS011;33628;50.806;11.586;2022-08-03T00:53:09;2.13;;;1.70;;
47866;SDS011;33628;50.806;11.586;2022-08-03T00:55:40;4.22;;;1.60;;
47866;SDS011;33628;50.806;11.586;2022-08-03T00:58:07;1.60;;;1.40;;
47866;SDS011;33628;50.806;11.586;2022-08-03T01:00:35;3.53;;;1.77;;
47866;SDS011;33628;50.806;11.586;2022-08-03T01:03:05;3.03;;;1.42;;
47866;SDS011;33628;50.806;11.586;2022-08-03T01:05:35;2.25;;;1.67;;
47866;SDS011;33628;50.806;11.586;2022-08-03T01:08:07;2.53;;;1.85;;
47866;SDS011;33628;50.806;11.586;2022-08-03T01:10:41;2.42;;;1.92;;
47866;SDS011;33628;50.806;11.586;2022-08-03T01:13:14;2.33;;;2.00;;
47866;SDS011;33628;50.806;11.586;2022-08-03T01:15:48;5.72;;;1.67;;
47866;SDS011;33628;50.806;11.586;2022-08-03T01:18:25;2.75;;;2.03;;
47866;SDS011;33628;50.806;11.586;2022-08-03T01:20:56;4.03;;;1.90;;
47866;SDS011;33628;50.806;11.586;2022-08-03T01:26:32;5.13;;;1.92;;
47866;SDS011;33628;50.806;11.586;2022-08-03T01:29:11;3.72;;;1.63;;
47866;SDS011;33628;50.806;11.586;2022-08-03T01:31:58;2.28;;;1.63;;
47866;SDS011;33628;50.806;11.586;2022-08-03T01:34:27;3.78;;;2.10;;
47866;SDS011;33628;50.806;11.586;2022-08-03T01:36:55;3.00;;;2.08;;
47866;SDS011;33628;50.806;11.586;2022-08-03T01:39:22;5.35;;;2.15;;
47866;SDS011;33628;50.806;11.586;2022-08-03T01:41:50;2.30;;;2.10;;
47866;SDS011;33628;50.806;11.586;2022-08-03T01:44:17;3.30;;;2.30;;
47866;SDS011;33628;50.806;11.586;2022-08-03T01:46:46;4.50;;;2.17;;
47866;SDS011;33628;50.806;11.586;2022-08-03T01:49:14;2.78;;;1.90;;
47866;SDS011;33628;50.806;11.586;2022-08-03T01:51:41;2.65;;;1.90;;
47866;SDS011;33628;50.806;11.586;2022-08-03T01:54:08;3.70;;;1.80;;
47866;SDS011;33628;50.806;11.586;2022-08-03T01:56:35;3.25;;;1.63;;
47866;SDS011;33628;50.806;11.586;2022-08-03T01:59:02;2.30;;;1.75;;
47866;SDS011;33628;50.806;11.586;2022-08-03T02:01:29;1.92;;;1.80;;
47866;SDS011;33628;50.806;11.586;2022-08-03T02:03:57;2.50;;;1.98;;
47866;SDS011;33628;50.806;11.586;2022-08-03T02:06:25;3.05;;;2.10;;
47866;SDS011;33628;50.806;11.586;2022-08-03T02:08:51;2.05;;;1.80;;
47866;SDS011;33628;50.806;11.586;2022-08-03T02:11:18;4.53;;;2.20;;
47866;SDS011;33628;50.806;11.586;2022-08-03T02:13:44;3.63;;;2.15;;
47866;SDS011;33628;50.806;11.586;2022-08-03T02:16:11;3.67;;;1.92;;
47866;SDS011;33628;50.806;11.586;2022-08-03T02:18:38;2.47;;;2.17;;
47866;SDS011;33628;50.806;11.586;2022-08-03T02:21:06;2.88;;;2.22;;
47866;SDS011;33628;50.806;11.586;2022-08-03T02:23:34;2.28;;;2.08;;
47866;SDS011;33628;50.806;11.586;2022-08-03T02:26:01;2.17;;;1.98;;
47866;SDS011;33628;50.806;11.586;2022-08-03T02:28:30;3.38;;;2.17;;
47866;SDS011;33628;50.806;11.586;2022-08-03T02:30:59;3.90;;;2.17;;
47866;SDS011;33628;50.806;11.586;2022-08-03T02:33:30;3.28;;;2.17;;
47866;SDS011;33628;50.806;11.586;2022-08-03T02:35:59;2.97;;;2.08;;
47866;SDS011;33628;50.806;11.586;2022-08-03T02:38:28;4.85;;;2.42;;
47866;SDS011;33628;50.806;11.586;2022-08-03T02:40:56;5.57;;;2.28;;
47866;SDS011;33628;50.806;11.586;2022-08-03T02:43:23;2.95;;;2.20;;
47866;SDS011;33628;50.806;11.586;2022-08-03T02:45:50;3.28;;;2.50;;
47866;SDS011;33628;50.806;11.586;2022-08-03T02:48:19;4.10;;;2.65;;
47866;SDS011;33628;50.806;11.586;2022-08-03T02:50:47;2.58;;;2.38;;
47866;SDS011;33628;50.806;11.586;2022-08-03T02:53:13;3.58;;;2.47;;
47866;SDS011;33628;50.806;11.586;2022-08-03T02:55:44;2.45;;;2.25;;
47866;SDS011;33628;50.806;11.586;2022-08-03T02:58:11;3.10;;;2.35;;
47866;SDS011;33628;50.806;11.586;2022-08-03T03:00:38;4.32;;;2.38;;
47866;SDS011;33628;50.806;11.586;2022-08-03T03:03:05;2.40;;;2.20;;
47866;SDS011;33628;50.806;11.586;2022-08-03T03:05:32;2.42;;;2.08;;
47866;SDS011;33628;50.806;11.586;2022-08-03T03:08:00;2.70;;;2.20;;
47866;SDS011;33628;50.806;11.586;2022-08-03T03:10:27;3.42;;;2.20;;
47866;SDS011;33628;50.806;11.586;2022-08-03T03:12:56;3.47;;;2.00;;
47866;SDS011;33628;50.806;11.586;2022-08-03T03:15:23;3.08;;;2.28;;
47866;SDS011;33628;50.806;11.586;2022-08-03T03:17:51;2.17;;;1.98;;
47866;SDS011;33628;50.806;11.586;2022-08-03T03:20:18;2.65;;;2.40;;
47866;SDS011;33628;50.806;11.586;2022-08-03T03:22:45;3.63;;;2.20;;
47866;SDS011;33628;50.806;11.586;2022-08-03T03:25:12;2.15;;;1.83;;
47866;SDS011;33628;50.806;11.586;2022-08-03T03:27:38;5.80;;;2.50;;
47866;SDS011;33628;50.806;11.586;2022-08-03T03:30:07;3.10;;;2.33;;
47866;SDS011;33628;50.806;11.586;2022-08-03T03:32:33;3.15;;;2.42;;
47866;SDS011;33628;50.806;11.586;2022-08-03T03:35:01;2.92;;;1.92;;
47866;SDS011;33628;50.806;11.586;2022-08-03T03:37:28;3.80;;;2.63;;
47866;SDS011;33628;50.806;11.586;2022-08-03T03:39:54;4.07;;;2.30;;
47866;SDS011;33628;50.806;11.586;2022-08-03T03:42:20;3.58;;;2.83;;
47866;SDS011;33628;50.806;11.586;2022-08-03T03:44:47;4.53;;;2.60;;
47866;SDS011;33628;50.806;11.586;2022-08-03T03:47:14;3.92;;;2.63;;
47866;SDS011;33628;50.806;11.586;2022-08-03T03:49:41;5.25;;;2.58;;
47866;SDS011;33628;50.806;11.586;2022-08-03T03:52:07;3.25;;;2.92;;
47866;SDS011;33628;50.806;11.586;2022-08-03T03:54:39;7.70;;;2.95;;
47866;SDS011;33628;50.806;11.586;2022-08-03T03:57:06;3.70;;;2.58;;
47866;SDS011;33628;50.806;11.586;2022-08-03T03:59:32;2.78;;;2.58;;
47866;SDS011;33628;50.806;11.586;2022-08-03T04:02:02;3.78;;;2.80;;
47866;SDS011;33628;50.806;11.586;2022-08-03T04:04:32;3.08;;;2.50;;
47866;SDS011;33628;50.806;11.586;2022-08-03T04:07:17;3.33;;;2.78;;
47866;SDS011;33628;50.806;11.586;2022-08-03T04:10:01;8.52;;;2.53;;
47866;SDS011;33628;50.806;11.586;2022-08-03T04:12:49;4.22;;;3.17;;
47866;SDS011;33628;50.806;11.586;2022-08-03T04:15:17;7.13;;;2.78;;
47866;SDS011;33628;50.806;11.586;2022-08-03T04:17:46;3.67;;;2.45;;
47866;SDS011;33628;50.806;11.586;2022-08-03T04:20:14;3.10;;;2.65;;
47866;SDS011;33628;50.806;11.586;2022-08-03T04:22:42;4.15;;;3.00;;
47866;SDS011;33628;50.806;11.586;2022-08-03T04:25:09;5.20;;;2.95;;
47866;SDS011;33628;50.806;11.586;2022-08-03T04:27:42;5.50;;;2.85;;
47866;SDS011;33628;50.806;11.586;2022-08-03T04:30:08;5.90;;;3.30;;
47866;SDS011;33628;50.806;11.586;2022-08-03T04:32:36;12.63;;;3.97;;
47866;SDS011;33628;50.806;11.586;2022-08-03T04:35:03;33.47;;;6.32;;
47866;SDS011;33628;50.806;11.586;2022-08-03T04:37:34;27.60;;;6.15;;
47866;SDS011;33628;50.806;11.586;2022-08-03T04:40:04;24.42;;;5.25;;
47866;SDS011;33628;50.806;11.586;2022-08-03T04:42:32;13.05;;;4.55;;
47866;SDS011;33628;50.806;11.586;2022-08-03T04:44:58;6.82;;;3.10;;
47866;SDS011;33628;50.806;11.586;2022-08-03T04:47:25;5.63;;;2.95;;
47866;SDS011;33628;50.806;11.586;2022-08-03T04:49:51;7.13;;;3.22;;
47866;SDS011;33628;50.806;11.586;2022-08-03T04:52:17;5.55;;;3.20;;
47866;SDS011;33628;50.806;11.586;2022-08-03T04:54:45;7.40;;;3.47;;
47866;SDS011;33628;50.806;11.586;2022-08-03T04:57:12;16.65;;;4.55;;
47866;SDS011;33628;50.806;11.586;2022-08-03T04:59:38;27.20;;;4.95;;
47866;SDS011;33628;50.806;11.586;2022-08-03T05:02:04;31.88;;;5.90;;
47866;SDS011;33628;50.806;11.586;2022-08-03T05:04:31;27.67;;;5.55;;
47866;SDS011;33628;50.806;11.586;2022-08-03T05:06:57;22.83;;;4.82;;
47866;SDS011;33628;50.806;11.586;2022-08-03T05:09:24;10.20;;;4.40;;
47866;SDS011;33628;50.806;11.586;2022-08-03T05:11:52;8.15;;;3.40;;
47866;SDS011;33628;50.806;11.586;2022-08-03T05:14:18;17.70;;;4.10;;
47866;SDS011;33628;50.806;11.586;2022-08-03T05:16:44;18.55;;;4.32;;
47866;SDS011;33628;50.806;11.586;2022-08-03T05:19:11;22.67;;;5.88;;
47866;SDS011;33628;50.806;11.586;2022-08-03T05:21:37;19.38;;;4.40;;
47866;SDS011;33628;50.806;11.586;2022-08-03T05:24:04;19.58;;;4.20;;
47866;SDS011;33628;50.806;11.586;2022-08-03T05:26:30;7.25;;;3.35;;
47866;SDS011;33628;50.806;11.586;2022-08-03T05:28:58;6.78;;;3.13;;
47866;SDS011;33628;50.806;11.586;2022-08-03T05:31:24;4.57;;;2.80;;
47866;SDS011;33628;50.806;11.586;2022-08-03T05:33:50;4.03;;;2.97;;
47866;SDS011;33628;50.806;11.586;2022-08-03T05:36:17;5.68;;;2.78;;
47866;SDS011;33628;50.806;11.586;2022-08-03T05:38:45;6.32;;;3.00;;
47866;SDS011;33628;50.806;11.586;2022-08-03T05:41:11;5.30;;;2.92;;
47866;SDS011;33628;50.806;11.586;2022-08-03T05:43:38;5.40;;;2.60;;
47866;SDS011;33628;50.806;11.586;2022-08-03T05:46:05;3.20;;;2.88;;
47866;SDS011;33628;50.806;11.586;2022-08-03T05:48:32;6.75;;;3.03;;
47866;SDS011;33628;50.806;11.586;2022-08-03T05:50:58;7.38;;;3.17;;
47866;SDS011;33628;50.806;11.586;2022-08-03T05:53:24;6.22;;;2.83;;
47866;SDS011;33628;50.806;11.586;2022-08-03T05:55:50;4.95;;;2.97;;
47866;SDS011;33628;50.806;11.586;2022-08-03T05:58:17;7.70;;;3.08;;
47866;SDS011;33628;50.806;11.586;2022-08-03T06:00:43;6.68;;;2.92;;
47866;SDS011;33628;50.806;11.586;2022-08-03T06:03:11;7.72;;;3.08;;
47866;SDS011;33628;50.806;11.586;2022-08-03T06:05:37;4.80;;;2.83;;
47866;SDS011;33628;50.806;11.586;2022-08-03T06:08:07;4.10;;;2.60;;
47866;SDS011;33628;50.806;11.586;2022-08-03T06:10:34;4.30;;;3.05;;
47866;SDS011;33628;50.806;11.586;2022-08-03T06:13:00;4.45;;;2.90;;
47866;SDS011;33628;50.806;11.586;2022-08-03T06:15:26;4.65;;;3.10;;
47866;SDS011;33628;50.806;11.586;2022-08-03T06:17:52;4.00;;;2.90;;
47866;SDS011;33628;50.806;11.586;2022-08-03T06:20:20;4.13;;;2.67;;
47866;SDS011;33628;50.806;11.586;2022-08-03T06:22:46;3.70;;;2.95;;
47866;SDS011;33628;50.806;11.586;2022-08-03T06:25:13;4.95;;;2.80;;
47866;SDS011;33628;50.806;11.586;2022-08-03T06:27:39;4.63;;;2.67;;
47866;SDS011;33628;50.806;11.586;2022-08-03T06:30:06;3.05;;;2.65;;
47866;SDS011;33628;50.806;11.586;2022-08-03T06:32:33;3.63;;;2.20;;
47866;SDS011;33628;50.806;11.586;2022-08-03T06:34:59;2.95;;;2.28;;
47866;SDS011;33628;50.806;11.586;2022-08-03T06:37:27;7.95;;;2.25;;
47866;SDS011;33628;50.806;11.586;2022-08-03T06:39:53;10.27;;;2.58;;
47866;SDS011;33628;50.806;11.586;2022-08-03T06:42:20;3.03;;;2.20;;
47866;SDS011;33628;50.806;11.586;2022-08-03T06:44:46;5.45;;;2.20;;
47866;SDS011;33628;50.806;11.586;2022-08-03T06:47:12;2.67;;;1.77;;
47866;SDS011;33628;50.806;11.586;2022-08-03T06:49:39;4.88;;;1.80;;
47866;SDS011;33628;50.806;11.586;2022-08-03T06:52:06;2.58;;;2.08;;
47866;SDS011;33628;50.806;11.586;2022-08-03T06:54:34;2.60;;;2.00;;
47866;SDS011;33628;50.806;11.586;2022-08-03T06:57:00;4.50;;;1.90;;
47866;SDS011;33628;50.806;11.586;2022-08-03T06:59:26;2.97;;;2.17;;
47866;SDS011;33628;50.806;11.586;2022-08-03T07:01:52;10.77;;;2.97;;
47866;SDS011;33628;50.806;11.586;2022-08-03T07:04:18;5.47;;;1.95;;
47866;SDS011;33628;50.806;11.586;2022-08-03T07:06:45;2.90;;;2.17;;
47866;SDS011;33628;50.806;11.586;2022-08-03T07:09:11;3.42;;;2.15;;
47866;SDS011;33628;50.806;11.586;2022-08-03T07:11:38;3.03;;;2.20;;
47866;SDS011;33628;50.806;11.586;2022-08-03T07:14:04;3.88;;;1.88;;
47866;SDS011;33628;50.806;11.586;2022-08-03T07:16:30;2.83;;;1.80;;
47866;SDS011;33628;50.806;11.586;2022-08-03T07:18:56;3.47;;;2.00;;
47866;SDS011;33628;50.806;11.586;2022-08-03T07:21:23;4.65;;;2.00;;
47866;SDS011;33628;50.806;11.586;2022-08-03T07:23:49;2.45;;;1.77;;
47866;SDS011;33628;50.806;11.586;2022-08-03T07:26:15;2.38;;;1.85;;
47866;SDS011;33628;50.806;11.586;2022-08-03T07:28:43;4.05;;;1.73;;
47866;SDS011;33628;50.806;11.586;2022-08-03T07:31:09;2.95;;;1.90;;
47866;SDS011;33628;50.806;11.586;2022-08-03T07:33:36;5.15;;;2.00;;
47866;SDS011;33628;50.806;11.586;2022-08-03T07:36:02;4.15;;;1.52;;
47866;SDS011;33628;50.806;11.586;2022-08-03T07:38:30;9.05;;;1.90;;
47866;SDS011;33628;50.806;11.586;2022-08-03T07:40:56;13.60;;;2.22;;
47866;SDS011;33628;50.806;11.586;2022-08-03T07:43:23;6.32;;;2.38;;
47866;SDS011;33628;50.806;11.586;2022-08-03T07:45:51;4.20;;;1.73;;
47866;SDS011;33628;50.806;11.586;2022-08-03T07:48:17;8.32;;;1.83;;
47866;SDS011;33628;50.806;11.586;2022-08-03T07:50:44;6.40;;;1.90;;
47866;SDS011;33628;50.806;11.586;2022-08-03T07:53:10;7.60;;;2.20;;
47866;SDS011;33628;50.806;11.586;2022-08-03T07:55:36;5.25;;;1.70;;
47866;SDS011;33628;50.806;11.586;2022-08-03T07:58:03;5.40;;;2.00;;
47866;SDS011;33628;50.806;11.586;2022-08-03T08:00:30;4.93;;;1.67;;
47866;SDS011;33628;50.806;11.586;2022-08-03T08:02:58;2.95;;;1.90;;
47866;SDS011;33628;50.806;11.586;2022-08-03T08:05:25;5.60;;;1.90;;
47866;SDS011;33628;50.806;11.586;2022-08-03T08:07:52;3.70;;;1.83;;
47866;SDS011;33628;50.806;11.586;2022-08-03T08:10:18;6.85;;;2.30;;
47866;SDS011;33628;50.806;11.586;2022-08-03T08:12:46;3.63;;;1.40;;
47866;SDS011;33628;50.806;11.586;2022-08-03T08:15:12;6.03;;;1.67;;
47866;SDS011;33628;50.806;11.586;2022-08-03T08:17:42;4.55;;;2.47;;
47866;SDS011;33628;50.806;11.586;2022-08-03T08:20:13;5.15;;;1.77;;
47866;SDS011;33628;50.806;11.586;2022-08-03T08:22:41;3.10;;;1.75;;
47866;SDS011;33628;50.806;11.586;2022-08-03T08:25:08;2.80;;;1.73;;
47866;SDS011;33628;50.806;11.586;2022-08-03T08:27:39;3.22;;;1.63;;
47866;SDS011;33628;50.806;11.586;2022-08-03T08:30:07;6.38;;;1.42;;
47866;SDS011;33628;50.806;11.586;2022-08-03T08:32:34;3.70;;;1.35;;
47866;SDS011;33628;50.806;11.586;2022-08-03T08:35:01;7.00;;;1.55;;
47866;SDS011;33628;50.806;11.586;2022-08-03T08:37:29;6.88;;;1.55;;
47866;SDS011;33628;50.806;11.586;2022-08-03T08:39:56;5.00;;;1.70;;
47866;SDS011;33628;50.806;11.586;2022-08-03T08:42:22;2.00;;;1.15;;
47866;SDS011;33628;50.806;11.586;2022-08-03T08:44:48;1.70;;;1.27;;
47866;SDS011;33628;50.806;11.586;2022-08-03T08:47:15;3.67;;;1.40;;
47866;SDS011;33628;50.806;11.586;2022-08-03T08:49:44;3.70;;;1.17;;
47866;SDS011;33628;50.806;11.586;2022-08-03T08:52:13;2.42;;;1.40;;
47866;SDS011;33628;50.806;11.586;2022-08-03T08:54:41;3.78;;;1.30;;
47866;SDS011;33628;50.806;11.586;2022-08-03T08:57:09;4.85;;;1.42;;
47866;SDS011;33628;50.806;11.586;2022-08-03T08:59:36;6.15;;;1.50;;
47866;SDS011;33628;50.806;11.586;2022-08-03T09:02:03;4.03;;;1.35;;
47866;SDS011;33628;50.806;11.586;2022-08-03T09:04:29;1.58;;;1.05;;
47866;SDS011;33628;50.806;11.586;2022-08-03T09:06:56;3.35;;;1.02;;
47866;SDS011;33628;50.806;11.586;2022-08-03T09:09:22;3.35;;;1.17;;
47866;SDS011;33628;50.806;11.586;2022-08-03T09:11:50;2.88;;;1.05;;
47866;SDS011;33628;50.806;11.586;2022-08-03T09:14:17;4.10;;;1.10;;
47866;SDS011;33628;50.806;11.586;2022-08-03T09:16:56;2.90;;;1.10;;
47866;SDS011;33628;50.806;11.586;2022-08-03T09:22:07;2.55;;;1.10;;
47866;SDS011;33628;50.806;11.586;2022-08-03T09:24:38;2.92;;;1.20;;
47866;SDS011;33628;50.806;11.586;2022-08-03T09:27:20;7.40;;;1.00;;
47866;SDS011;33628;50.806;11.586;2022-08-03T09:29:47;3.20;;;1.30;;
47866;SDS011;33628;50.806;11.586;2022-08-03T09:32:14;5.45;;;1.05;;
47866;SDS011;33628;50.806;11.586;2022-08-03T09:34:40;4.85;;;0.93;;
47866;SDS011;33628;50.806;11.586;2022-08-03T09:37:11;1.92;;;0.95;;
47866;SDS011;33628;50.806;11.586;2022-08-03T09:39:39;1.25;;;1.00;;
47866;SDS011;33628;50.806;11.586;2022-08-03T09:42:06;2.03;;;0.82;;
47866;SDS011;33628;50.806;11.586;2022-08-03T09:44:35;4.10;;;1.23;;
47866;SDS011;33628;50.806;11.586;2022-08-03T09:47:02;3.92;;;1.00;;
47866;SDS011;33628;50.806;11.586;2022-08-03T09:49:30;3.20;;;1.00;;
47866;SDS011;33628;50.806;11.586;2022-08-03T09:51:58;4.10;;;0.90;;
47866;SDS011;33628;50.806;11.586;2022-08-03T09:54:27;2.13;;;1.08;;
47866;SDS011;33628;50.806;11.586;2022-08-03T09:56:54;3.17;;;1.27;;
47866;SDS011;33628;50.806;11.586;2022-08-03T09:59:24;3.40;;;1.05;;
47866;SDS011;33628;50.806;11.586;2022-08-03T10:01:53;3.60;;;1.20;;
47866;SDS011;33628;50.806;11.586;2022-08-03T10:04:19;1.60;;;1.20;;
47866;SDS011;33628;50.806;11.586;2022-08-03T10:07:00;3.70;;;1.20;;
47866;SDS011;33628;50.806;11.586;2022-08-03T10:09:29;4.82;;;1.23;;
47866;SDS011;33628;50.806;11.586;2022-08-03T10:11:55;3.40;;;1.30;;
47866;SDS011;33628;50.806;11.586;2022-08-03T10:14:23;2.83;;;1.20;;
47866;SDS011;33628;50.806;11.586;2022-08-03T10:16:50;3.22;;;1.27;;
47866;SDS011;33628;50.806;11.586;2022-08-03T10:19:18;3.08;;;1.10;;
47866;SDS011;33628;50.806;11.586;2022-08-03T10:21:45;1.55;;;0.98;;
47866;SDS011;33628;50.806;11.586;2022-08-03T10:24:14;5.47;;;1.27;;
47866;SDS011;33628;50.806;11.586;2022-08-03T10:26:43;1.20;;;0.90;;
47866;SDS011;33628;50.806;11.586;2022-08-03T10:29:11;3.10;;;1.00;;
47866;SDS011;33628;50.806;11.586;2022-08-03T10:31:48;4.70;;;1.15;;
47866;SDS011;33628;50.806;11.586;2022-08-03T10:34:21;2.95;;;1.13;;
47866;SDS011;33628;50.806;11.586;2022-08-03T10:36:49;3.15;;;1.00;;
47866;SDS011;33628;50.806;11.586;2022-08-03T10:39:18;4.78;;;1.17;;
47866;SDS011;33628;50.806;11.586;2022-08-03T10:41:46;2.60;;;0.90;;
47866;SDS011;33628;50.806;11.586;2022-08-03T10:44:16;2.13;;;0.98;;
47866;SDS011;33628;50.806;11.586;2022-08-03T10:46:43;4.28;;;0.95;;
47866;SDS011;33628;50.806;11.586;2022-08-03T10:49:12;2.90;;;1.63;;
47866;SDS011;33628;50.806;11.586;2022-08-03T10:51:39;5.60;;;1.40;;
47866;SDS011;33628;50.806;11.586;2022-08-03T10:54:06;1.45;;;1.15;;
47866;SDS011;33628;50.806;11.586;2022-08-03T10:56:37;2.30;;;1.00;;
47866;SDS011;33628;50.806;11.586;2022-08-03T11:02:38;3.67;;;1.13;;
47866;SDS011;33628;50.806;11.586;2022-08-03T11:08:18;2.22;;;1.00;;
47866;SDS011;33628;50.806;11.586;2022-08-03T11:10:45;1.20;;;1.10;;
47866;SDS011;33628;50.806;11.586;2022-08-03T11:13:12;3.28;;;1.42;;
47866;SDS011;33628;50.806;11.586;2022-08-03T11:15:40;4.97;;;1.30;;
47866;SDS011;33628;50.806;11.586;2022-08-03T11:18:09;1.25;;;1.13;;
47866;SDS011;33628;50.806;11.586;2022-08-03T11:20:50;4.55;;;1.13;;
47866;SDS011;33628;50.806;11.586;2022-08-03T11:23:18;3.90;;;1.05;;
47866;SDS011;33628;50.806;11.586;2022-08-03T11:28:34;2.03;;;1.10;;
47866;SDS011;33628;50.806;11.586;2022-08-03T11:34:04;0.80;;;0.80;;
47866;SDS011;33628;50.806;11.586;2022-08-03T11:36:33;1.50;;;1.10;;
47866;SDS011;33628;50.806;11.586;2022-08-03T11:39:20;1.90;;;0.90;;
47866;SDS011;33628;50.806;11.586;2022-08-03T11:41:46;4.32;;;1.23;;
47866;SDS011;33628;50.806;11.586;2022-08-03T11:46:54;1.17;;;1.00;;
47866;SDS011;33628;50.806;11.586;2022-08-03T11:49:20;2.33;;;0.90;;
47866;SDS011;33628;50.806;11.586;2022-08-03T11:51:51;1.83;;;0.80;;
47866;SDS011;33628;50.806;11.586;2022-08-03T11:54:18;2.05;;;0.93;;
47866;SDS011;33628;50.806;11.586;2022-08-03T11:56:45;5.20;;;1.40;;
47866;SDS011;33628;50.806;11.586;2022-08-03T11:59:11;1.00;;;0.90;;
47866;SDS011;33628;50.806;11.586;2022-08-03T12:01:38;3.15;;;1.40;;
47866;SDS011;33628;50.806;11.586;2022-08-03T12:04:05;4.32;;;0.90;;
47866;SDS011;33628;50.806;11.586;2022-08-03T12:06:32;3.67;;;1.10;;
47866;SDS011;33628;50.806;11.586;2022-08-03T12:09:18;4.13;;;1.17;;
47866;SDS011;33628;50.806;11.586;2022-08-03T12:11:46;1.73;;;1.13;;
47866;SDS011;33628;50.806;11.586;2022-08-03T12:14:15;2.35;;;1.10;;
47866;SDS011;33628;50.806;11.586;2022-08-03T12:16:44;4.40;;;1.30;;
47866;SDS011;33628;50.806;11.586;2022-08-03T12:19:12;4.15;;;1.38;;
47866;SDS011;33628;50.806;11.586;2022-08-03T12:21:44;1.70;;;1.15;;
47866;SDS011;33628;50.806;11.586;2022-08-03T12:24:11;1.58;;;1.20;;
47866;SDS011;33628;50.806;11.586;2022-08-03T12:26:43;2.65;;;1.30;;
47866;SDS011;33628;50.806;11.586;2022-08-03T12:29:15;1.40;;;1.30;;
47866;SDS011;33628;50.806;11.586;2022-08-03T12:31:41;2.33;;;1.40;;
47866;SDS011;33628;50.806;11.586;2022-08-03T12:34:07;1.30;;;1.20;;
47866;SDS011;33628;50.806;11.586;2022-08-03T12:36:34;1.98;;;1.17;;
47866;SDS011;33628;50.806;11.586;2022-08-03T12:39:02;2.17;;;1.20;;
47866;SDS011;33628;50.806;11.586;2022-08-03T12:41:30;2.95;;;1.10;;
47866;SDS011;33628;50.806;11.586;2022-08-03T12:44:05;2.88;;;1.17;;
47866;SDS011;33628;50.806;11.586;2022-08-03T12:46:33;4.20;;;1.20;;
47866;SDS011;33628;50.806;11.586;2022-08-03T12:49:04;2.55;;;1.17;;
47866;SDS011;33628;50.806;11.586;2022-08-03T12:51:32;2.63;;;1.30;;
47866;SDS011;33628;50.806;11.586;2022-08-03T12:54:00;2.55;;;1.17;;
47866;SDS011;33628;50.806;11.586;2022-08-03T12:56:26;1.83;;;1.10;;
47866;SDS011;33628;50.806;11.586;2022-08-03T12:58:52;2.33;;;1.45;;
47866;SDS011;33628;50.806;11.586;2022-08-03T13:01:22;1.50;;;0.95;;
47866;SDS011;33628;50.806;11.586;2022-08-03T13:03:49;1.73;;;1.10;;
47866;SDS011;33628;50.806;11.586;2022-08-03T13:06:17;6.57;;;1.20;;
47866;SDS011;33628;50.806;11.586;2022-08-03T13:08:44;1.13;;;1.02;;
47866;SDS011;33628;50.806;11.586;2022-08-03T13:11:22;3.15;;;1.10;;
47866;SDS011;33628;50.806;11.586;2022-08-03T13:13:49;4.70;;;1.42;;
47866;SDS011;33628;50.806;11.586;2022-08-03T13:16:15;3.45;;;1.38;;
47866;SDS011;33628;50.806;11.586;2022-08-03T13:18:43;1.33;;;1.10;;
47866;SDS011;33628;50.806;11.586;2022-08-03T13:21:12;1.40;;;1.20;;
47866;SDS011;33628;50.806;11.586;2022-08-03T13:23:40;5.05;;;1.13;;
47866;SDS011;33628;50.806;11.586;2022-08-03T13:26:06;2.70;;;1.00;;
47866;SDS011;33628;50.806;11.586;2022-08-03T13:28:32;3.50;;;1.38;;
47866;SDS011;33628;50.806;11.586;2022-08-03T13:30:58;6.35;;;1.40;;
47866;SDS011;33628;50.806;11.586;2022-08-03T13:33:25;1.80;;;1.00;;
47866;SDS011;33628;50.806;11.586;2022-08-03T13:35:53;6.10;;;1.58;;
47866;SDS011;33628;50.806;11.586;2022-08-03T13:38:19;2.65;;;1.20;;
47866;SDS011;33628;50.806;11.586;2022-08-03T13:40:45;2.42;;;1.02;;
47866;SDS011;33628;50.806;11.586;2022-08-03T13:43:11;3.08;;;1.13;;
47866;SDS011;33628;50.806;11.586;2022-08-03T13:45:38;3.40;;;1.70;;
47866;SDS011;33628;50.806;11.586;2022-08-03T13:48:04;3.90;;;1.67;;
47866;SDS011;33628;50.806;11.586;2022-08-03T13:50:30;2.38;;;1.52;;
47866;SDS011;33628;50.806;11.586;2022-08-03T13:52:58;1.77;;;1.20;;
47866;SDS011;33628;50.806;11.586;2022-08-03T13:55:25;4.88;;;1.75;;
47866;SDS011;33628;50.806;11.586;2022-08-03T13:57:51;1.67;;;1.25;;
47866;SDS011;33628;50.806;11.586;2022-08-03T14:00:17;1.63;;;1.30;;
47866;SDS011;33628;50.806;11.586;2022-08-03T14:02:47;3.90;;;1.30;;
47866;SDS011;33628;50.806;11.586;2022-08-03T14:05:13;3.58;;;1.20;;
47866;SDS011;33628;50.806;11.586;2022-08-03T14:07:39;1.35;;;0.98;;
47866;SDS011;33628;50.806;11.586;2022-08-03T14:10:08;1.85;;;1.13;;
47866;SDS011;33628;50.806;11.586;2022-08-03T14:12:34;1.25;;;1.00;;
47866;SDS011;33628;50.806;11.586;2022-08-03T14:15:00;1.50;;;1.23;;
47866;SDS011;33628;50.806;11.586;2022-08-03T14:17:26;2.47;;;1.00;;
47866;SDS011;33628;50.806;11.586;2022-08-03T14:19:53;5.20;;;1.20;;
47866;SDS011;33628;50.806;11.586;2022-08-03T14:22:19;3.10;;;1.00;;
47866;SDS011;33628;50.806;11.586;2022-08-03T14:24:45;2.13;;;1.17;;
47866;SDS011;33628;50.806;11.586;2022-08-03T14:27:12;2.85;;;0.90;;
47866;SDS011;33628;50.806;11.586;2022-08-03T14:29:38;2.17;;;1.05;;
47866;SDS011;33628;50.806;11.586;2022-08-03T14:32:05;1.70;;;1.25;;
47866;SDS011;33628;50.806;11.586;2022-08-03T14:34:31;3.00;;;1.05;;
47866;SDS011;33628;50.806;11.586;2022-08-03T14:36:57;4.00;;;1.27;;
47866;SDS011;33628;50.806;11.586;2022-08-03T14:39:24;3.85;;;1.30;;
47866;SDS011;33628;50.806;11.586;2022-08-03T14:41:50;2.45;;;1.00;;
47866;SDS011;33628;50.806;11.586;2022-08-03T14:44:17;2.20;;;1.30;;
47866;SDS011;33628;50.806;11.586;2022-08-03T14:46:43;3.90;;;1.30;;
47866;SDS011;33628;50.806;11.586;2022-08-03T14:49:10;2.80;;;2.60;;
47866;SDS011;33628;50.806;11.586;2022-08-03T14:51:36;4.70;;;2.20;;
47866;SDS011;33628;50.806;11.586;2022-08-03T14:54:02;2.15;;;1.00;;
47866;SDS011;33628;50.806;11.586;2022-08-03T14:56:28;1.30;;;1.10;;
47866;SDS011;33628;50.806;11.586;2022-08-03T14:58:54;1.92;;;1.17;;